X  Schlie├čen METAR Luftfahrt Wetterdaten     EDVE Braunschweig-Wolfsburg Airport
Temperatur
20°C Temperatur
9°C Taupunkt
49% Feuchtigkeit



Wind
10 KM/S
6 MPS
3 M/S
5 KTS



150°
SSO
Aktuelle Wetterlage

Klar Klar
Luftdruck 1003.92 (hPa) - 29.65 (inHg)
Sichtweite 6.2 (Meile) - 10 (Km)
Flughafen
Flughafen Code EDVE

Position : Braunschweig-Wolfsburg Airport
Entfernung: 35 (Km)

Metar:
EDVE 092250Z AUTO 15005KT 9999 // NCD 20/09 Q1004

Zeit: 10-05-2021 00:50 CEST